sensor_id;sensor_type;location;lat;lon;timestamp;P1;durP1;ratioP1;P2;durP2;ratioP2
30888;SDS011;51092;50.874;7.024;2023-04-25T00:00:31;16.40;;;7.32;;
30888;SDS011;51092;50.874;7.024;2023-04-25T00:01:33;14.35;;;5.90;;
30888;SDS011;51092;50.874;7.024;2023-04-25T00:02:36;11.05;;;5.80;;
30888;SDS011;51092;50.874;7.024;2023-04-25T00:03:38;17.65;;;6.10;;
30888;SDS011;51092;50.874;7.024;2023-04-25T00:04:40;12.57;;;5.88;;
30888;SDS011;51092;50.874;7.024;2023-04-25T00:05:42;16.58;;;6.53;;
30888;SDS011;51092;50.874;7.024;2023-04-25T00:06:44;13.05;;;6.07;;
30888;SDS011;51092;50.874;7.024;2023-04-25T00:07:46;16.65;;;6.18;;
30888;SDS011;51092;50.874;7.024;2023-04-25T00:08:48;18.48;;;6.05;;
30888;SDS011;51092;50.874;7.024;2023-04-25T00:09:50;14.55;;;6.20;;
30888;SDS011;51092;50.874;7.024;2023-04-25T00:10:52;18.77;;;6.53;;
30888;SDS011;51092;50.874;7.024;2023-04-25T00:11:54;15.43;;;6.57;;
30888;SDS011;51092;50.874;7.024;2023-04-25T00:12:56;15.30;;;6.05;;
30888;SDS011;51092;50.874;7.024;2023-04-25T00:13:59;18.95;;;6.35;;
30888;SDS011;51092;50.874;7.024;2023-04-25T00:15:03;16.70;;;6.55;;
30888;SDS011;51092;50.874;7.024;2023-04-25T00:16:05;13.40;;;5.93;;
30888;SDS011;51092;50.874;7.024;2023-04-25T00:17:08;16.02;;;6.10;;
30888;SDS011;51092;50.874;7.024;2023-04-25T00:18:10;16.08;;;6.13;;
30888;SDS011;51092;50.874;7.024;2023-04-25T00:19:12;20.67;;;6.20;;
30888;SDS011;51092;50.874;7.024;2023-04-25T00:20:14;15.88;;;5.63;;
30888;SDS011;51092;50.874;7.024;2023-04-25T00:21:17;17.58;;;5.72;;
30888;SDS011;51092;50.874;7.024;2023-04-25T00:22:19;13.15;;;5.88;;
30888;SDS011;51092;50.874;7.024;2023-04-25T00:23:21;15.93;;;5.60;;
30888;SDS011;51092;50.874;7.024;2023-04-25T00:24:22;19.05;;;6.10;;
30888;SDS011;51092;50.874;7.024;2023-04-25T00:25:25;17.65;;;5.93;;
30888;SDS011;51092;50.874;7.024;2023-04-25T00:26:26;15.25;;;6.68;;
30888;SDS011;51092;50.874;7.024;2023-04-25T00:27:29;15.73;;;6.72;;
30888;SDS011;51092;50.874;7.024;2023-04-25T00:28:30;15.57;;;6.32;;
30888;SDS011;51092;50.874;7.024;2023-04-25T00:29:34;18.75;;;7.30;;
30888;SDS011;51092;50.874;7.024;2023-04-25T00:30:36;21.90;;;8.55;;
30888;SDS011;51092;50.874;7.024;2023-04-25T00:31:38;19.15;;;7.07;;
30888;SDS011;51092;50.874;7.024;2023-04-25T00:32:40;20.73;;;6.82;;
30888;SDS011;51092;50.874;7.024;2023-04-25T00:33:42;15.32;;;6.10;;
30888;SDS011;51092;50.874;7.024;2023-04-25T00:34:44;16.15;;;6.43;;
30888;SDS011;51092;50.874;7.024;2023-04-25T00:35:46;18.08;;;7.45;;
30888;SDS011;51092;50.874;7.024;2023-04-25T00:36:48;18.83;;;6.55;;
30888;SDS011;51092;50.874;7.024;2023-04-25T00:37:50;14.55;;;5.97;;
30888;SDS011;51092;50.874;7.024;2023-04-25T00:38:52;15.02;;;6.60;;
30888;SDS011;51092;50.874;7.024;2023-04-25T00:39:57;16.73;;;7.03;;
30888;SDS011;51092;50.874;7.024;2023-04-25T00:40:59;16.65;;;7.22;;
30888;SDS011;51092;50.874;7.024;2023-04-25T00:42:01;19.02;;;6.80;;
30888;SDS011;51092;50.874;7.024;2023-04-25T00:43:03;19.02;;;7.70;;
30888;SDS011;51092;50.874;7.024;2023-04-25T00:44:08;20.85;;;6.95;;
30888;SDS011;51092;50.874;7.024;2023-04-25T00:45:14;18.63;;;6.55;;
30888;SDS011;51092;50.874;7.024;2023-04-25T00:46:16;19.85;;;7.47;;
30888;SDS011;51092;50.874;7.024;2023-04-25T00:47:18;16.00;;;6.88;;
30888;SDS011;51092;50.874;7.024;2023-04-25T00:48:21;21.35;;;7.07;;
30888;SDS011;51092;50.874;7.024;2023-04-25T00:49:23;19.13;;;8.55;;
30888;SDS011;51092;50.874;7.024;2023-04-25T00:50:25;14.32;;;6.88;;
30888;SDS011;51092;50.874;7.024;2023-04-25T00:51:27;25.65;;;7.93;;
30888;SDS011;51092;50.874;7.024;2023-04-25T00:52:30;15.88;;;6.93;;
30888;SDS011;51092;50.874;7.024;2023-04-25T00:53:32;16.02;;;7.35;;
30888;SDS011;51092;50.874;7.024;2023-04-25T00:54:35;17.55;;;6.55;;
30888;SDS011;51092;50.874;7.024;2023-04-25T00:55:37;18.13;;;7.35;;
30888;SDS011;51092;50.874;7.024;2023-04-25T00:56:39;22.13;;;6.80;;
30888;SDS011;51092;50.874;7.024;2023-04-25T00:57:42;20.65;;;6.68;;
30888;SDS011;51092;50.874;7.024;2023-04-25T00:58:43;21.88;;;7.38;;
30888;SDS011;51092;50.874;7.024;2023-04-25T00:59:46;26.92;;;9.85;;
30888;SDS011;51092;50.874;7.024;2023-04-25T01:00:50;19.02;;;7.50;;
30888;SDS011;51092;50.874;7.024;2023-04-25T01:01:53;16.20;;;7.13;;
30888;SDS011;51092;50.874;7.024;2023-04-25T01:02:55;18.35;;;7.95;;
30888;SDS011;51092;50.874;7.024;2023-04-25T01:03:58;24.23;;;7.78;;
30888;SDS011;51092;50.874;7.024;2023-04-25T01:05:00;16.00;;;7.40;;
30888;SDS011;51092;50.874;7.024;2023-04-25T01:06:03;25.98;;;9.23;;
30888;SDS011;51092;50.874;7.024;2023-04-25T01:07:06;25.90;;;8.75;;
30888;SDS011;51092;50.874;7.024;2023-04-25T01:08:07;18.58;;;7.28;;
30888;SDS011;51092;50.874;7.024;2023-04-25T01:09:10;24.17;;;9.00;;
30888;SDS011;51092;50.874;7.024;2023-04-25T01:10:13;13.63;;;7.03;;
30888;SDS011;51092;50.874;7.024;2023-04-25T01:11:15;21.98;;;9.10;;
30888;SDS011;51092;50.874;7.024;2023-04-25T01:12:17;24.00;;;8.50;;
30888;SDS011;51092;50.874;7.024;2023-04-25T01:13:19;23.38;;;8.73;;
30888;SDS011;51092;50.874;7.024;2023-04-25T01:14:21;23.48;;;8.35;;
30888;SDS011;51092;50.874;7.024;2023-04-25T01:15:24;18.70;;;8.60;;
30888;SDS011;51092;50.874;7.024;2023-04-25T01:16:27;14.25;;;8.20;;
30888;SDS011;51092;50.874;7.024;2023-04-25T01:17:30;19.20;;;8.27;;
30888;SDS011;51092;50.874;7.024;2023-04-25T01:18:32;23.95;;;8.43;;
30888;SDS011;51092;50.874;7.024;2023-04-25T01:19:34;28.42;;;8.82;;
30888;SDS011;51092;50.874;7.024;2023-04-25T01:20:36;21.20;;;8.55;;
30888;SDS011;51092;50.874;7.024;2023-04-25T01:21:41;22.80;;;9.68;;
30888;SDS011;51092;50.874;7.024;2023-04-25T01:22:43;22.05;;;8.75;;
30888;SDS011;51092;50.874;7.024;2023-04-25T01:23:45;17.77;;;8.57;;
30888;SDS011;51092;50.874;7.024;2023-04-25T01:24:47;18.67;;;8.65;;
30888;SDS011;51092;50.874;7.024;2023-04-25T01:25:50;23.35;;;8.65;;
30888;SDS011;51092;50.874;7.024;2023-04-25T01:26:52;20.30;;;8.77;;
30888;SDS011;51092;50.874;7.024;2023-04-25T01:27:57;20.42;;;9.70;;
30888;SDS011;51092;50.874;7.024;2023-04-25T01:28:59;19.27;;;9.45;;
30888;SDS011;51092;50.874;7.024;2023-04-25T01:30:02;18.98;;;8.32;;
30888;SDS011;51092;50.874;7.024;2023-04-25T01:31:04;22.10;;;9.20;;
30888;SDS011;51092;50.874;7.024;2023-04-25T01:32:07;22.88;;;9.23;;
30888;SDS011;51092;50.874;7.024;2023-04-25T01:33:09;25.58;;;9.63;;
30888;SDS011;51092;50.874;7.024;2023-04-25T01:34:13;22.70;;;9.70;;
30888;SDS011;51092;50.874;7.024;2023-04-25T01:35:14;33.15;;;10.82;;
30888;SDS011;51092;50.874;7.024;2023-04-25T01:36:17;20.63;;;9.65;;
30888;SDS011;51092;50.874;7.024;2023-04-25T01:37:20;30.95;;;9.90;;
30888;SDS011;51092;50.874;7.024;2023-04-25T01:38:22;23.08;;;9.60;;
30888;SDS011;51092;50.874;7.024;2023-04-25T01:39:24;18.23;;;8.45;;
30888;SDS011;51092;50.874;7.024;2023-04-25T01:40:27;19.73;;;9.02;;
30888;SDS011;51092;50.874;7.024;2023-04-25T01:41:29;23.02;;;10.00;;
30888;SDS011;51092;50.874;7.024;2023-04-25T01:42:31;19.63;;;8.95;;
30888;SDS011;51092;50.874;7.024;2023-04-25T01:43:33;27.63;;;8.60;;
30888;SDS011;51092;50.874;7.024;2023-04-25T01:44:36;24.92;;;9.98;;
30888;SDS011;51092;50.874;7.024;2023-04-25T01:45:38;29.17;;;9.00;;
30888;SDS011;51092;50.874;7.024;2023-04-25T01:46:41;23.00;;;8.93;;
30888;SDS011;51092;50.874;7.024;2023-04-25T01:47:43;21.83;;;9.05;;
30888;SDS011;51092;50.874;7.024;2023-04-25T01:48:49;20.23;;;8.13;;
30888;SDS011;51092;50.874;7.024;2023-04-25T01:49:51;22.90;;;8.45;;
30888;SDS011;51092;50.874;7.024;2023-04-25T01:50:53;21.55;;;9.25;;
30888;SDS011;51092;50.874;7.024;2023-04-25T01:51:55;25.38;;;9.07;;
30888;SDS011;51092;50.874;7.024;2023-04-25T01:52:59;17.95;;;8.30;;
30888;SDS011;51092;50.874;7.024;2023-04-25T01:54:00;25.08;;;9.18;;
30888;SDS011;51092;50.874;7.024;2023-04-25T01:55:03;22.98;;;9.25;;
30888;SDS011;51092;50.874;7.024;2023-04-25T01:56:06;31.80;;;10.27;;
30888;SDS011;51092;50.874;7.024;2023-04-25T01:57:09;21.23;;;9.10;;
30888;SDS011;51092;50.874;7.024;2023-04-25T01:58:10;19.00;;;8.52;;
30888;SDS011;51092;50.874;7.024;2023-04-25T01:59:13;24.40;;;9.18;;
30888;SDS011;51092;50.874;7.024;2023-04-25T02:00:16;23.45;;;9.07;;
30888;SDS011;51092;50.874;7.024;2023-04-25T02:01:18;23.27;;;9.30;;
30888;SDS011;51092;50.874;7.024;2023-04-25T02:02:20;23.23;;;8.25;;
30888;SDS011;51092;50.874;7.024;2023-04-25T02:03:22;20.58;;;9.85;;
30888;SDS011;51092;50.874;7.024;2023-04-25T02:04:24;25.50;;;8.77;;
30888;SDS011;51092;50.874;7.024;2023-04-25T02:05:26;23.13;;;8.98;;
30888;SDS011;51092;50.874;7.024;2023-04-25T02:06:28;33.25;;;11.10;;
30888;SDS011;51092;50.874;7.024;2023-04-25T02:07:31;26.88;;;9.65;;
30888;SDS011;51092;50.874;7.024;2023-04-25T02:08:34;23.95;;;9.38;;
30888;SDS011;51092;50.874;7.024;2023-04-25T02:09:37;27.92;;;10.30;;
30888;SDS011;51092;50.874;7.024;2023-04-25T02:10:38;23.95;;;8.57;;
30888;SDS011;51092;50.874;7.024;2023-04-25T02:11:40;26.40;;;8.55;;
30888;SDS011;51092;50.874;7.024;2023-04-25T02:12:42;24.67;;;9.90;;
30888;SDS011;51092;50.874;7.024;2023-04-25T02:13:44;30.33;;;9.27;;
30888;SDS011;51092;50.874;7.024;2023-04-25T02:14:46;26.75;;;9.32;;
30888;SDS011;51092;50.874;7.024;2023-04-25T02:15:48;21.70;;;9.45;;
30888;SDS011;51092;50.874;7.024;2023-04-25T02:16:50;30.38;;;10.07;;
30888;SDS011;51092;50.874;7.024;2023-04-25T02:17:54;27.98;;;9.77;;
30888;SDS011;51092;50.874;7.024;2023-04-25T02:18:55;24.85;;;9.85;;
30888;SDS011;51092;50.874;7.024;2023-04-25T02:19:58;27.63;;;9.93;;
30888;SDS011;51092;50.874;7.024;2023-04-25T02:21:00;19.33;;;8.15;;
30888;SDS011;51092;50.874;7.024;2023-04-25T02:22:03;26.27;;;9.68;;
30888;SDS011;51092;50.874;7.024;2023-04-25T02:23:05;30.38;;;8.77;;
30888;SDS011;51092;50.874;7.024;2023-04-25T02:24:09;24.42;;;8.93;;
30888;SDS011;51092;50.874;7.024;2023-04-25T02:25:11;17.02;;;8.40;;
30888;SDS011;51092;50.874;7.024;2023-04-25T02:26:14;22.15;;;8.85;;
30888;SDS011;51092;50.874;7.024;2023-04-25T02:27:15;18.08;;;8.77;;
30888;SDS011;51092;50.874;7.024;2023-04-25T02:28:18;23.95;;;9.50;;
30888;SDS011;51092;50.874;7.024;2023-04-25T02:29:19;31.95;;;10.15;;
30888;SDS011;51092;50.874;7.024;2023-04-25T02:30:22;24.65;;;9.40;;
30888;SDS011;51092;50.874;7.024;2023-04-25T02:31:23;22.67;;;9.15;;
30888;SDS011;51092;50.874;7.024;2023-04-25T02:32:26;24.10;;;9.27;;
30888;SDS011;51092;50.874;7.024;2023-04-25T02:33:28;26.30;;;9.20;;
30888;SDS011;51092;50.874;7.024;2023-04-25T02:34:30;20.52;;;8.05;;
30888;SDS011;51092;50.874;7.024;2023-04-25T02:35:32;18.98;;;8.75;;
30888;SDS011;51092;50.874;7.024;2023-04-25T02:36:35;24.98;;;9.13;;
30888;SDS011;51092;50.874;7.024;2023-04-25T02:37:37;30.98;;;9.18;;
30888;SDS011;51092;50.874;7.024;2023-04-25T02:38:40;26.63;;;9.82;;
30888;SDS011;51092;50.874;7.024;2023-04-25T02:39:44;25.00;;;9.57;;
30888;SDS011;51092;50.874;7.024;2023-04-25T02:40:47;25.95;;;9.15;;
30888;SDS011;51092;50.874;7.024;2023-04-25T02:41:49;34.15;;;9.82;;
30888;SDS011;51092;50.874;7.024;2023-04-25T02:42:51;25.13;;;9.45;;
30888;SDS011;51092;50.874;7.024;2023-04-25T02:43:53;30.25;;;9.40;;
30888;SDS011;51092;50.874;7.024;2023-04-25T02:44:55;19.10;;;9.40;;
30888;SDS011;51092;50.874;7.024;2023-04-25T02:45:58;27.92;;;8.50;;
30888;SDS011;51092;50.874;7.024;2023-04-25T02:47:00;19.88;;;8.27;;
30888;SDS011;51092;50.874;7.024;2023-04-25T02:48:02;19.83;;;7.63;;
30888;SDS011;51092;50.874;7.024;2023-04-25T02:49:05;33.30;;;10.68;;
30888;SDS011;51092;50.874;7.024;2023-04-25T02:50:07;23.50;;;8.65;;
30888;SDS011;51092;50.874;7.024;2023-04-25T02:51:09;23.58;;;7.95;;
30888;SDS011;51092;50.874;7.024;2023-04-25T02:52:11;24.35;;;10.13;;
30888;SDS011;51092;50.874;7.024;2023-04-25T02:53:14;19.55;;;8.07;;
30888;SDS011;51092;50.874;7.024;2023-04-25T02:54:15;28.23;;;8.50;;
30888;SDS011;51092;50.874;7.024;2023-04-25T02:55:19;28.23;;;8.45;;
30888;SDS011;51092;50.874;7.024;2023-04-25T02:56:21;24.63;;;8.07;;
30888;SDS011;51092;50.874;7.024;2023-04-25T02:57:23;21.58;;;8.32;;
30888;SDS011;51092;50.874;7.024;2023-04-25T02:58:25;19.67;;;7.70;;
30888;SDS011;51092;50.874;7.024;2023-04-25T02:59:27;19.35;;;8.45;;
30888;SDS011;51092;50.874;7.024;2023-04-25T03:00:29;25.38;;;8.27;;
30888;SDS011;51092;50.874;7.024;2023-04-25T03:01:32;21.60;;;7.82;;
30888;SDS011;51092;50.874;7.024;2023-04-25T03:02:33;25.15;;;8.15;;
30888;SDS011;51092;50.874;7.024;2023-04-25T03:03:36;21.63;;;8.27;;
30888;SDS011;51092;50.874;7.024;2023-04-25T03:04:37;19.42;;;8.20;;
30888;SDS011;51092;50.874;7.024;2023-04-25T03:05:40;19.30;;;7.93;;
30888;SDS011;51092;50.874;7.024;2023-04-25T03:06:41;30.38;;;9.48;;
30888;SDS011;51092;50.874;7.024;2023-04-25T03:07:44;19.38;;;7.82;;
30888;SDS011;51092;50.874;7.024;2023-04-25T03:08:46;20.42;;;6.88;;
30888;SDS011;51092;50.874;7.024;2023-04-25T03:09:48;21.55;;;7.85;;
30888;SDS011;51092;50.874;7.024;2023-04-25T03:10:51;21.52;;;7.80;;
30888;SDS011;51092;50.874;7.024;2023-04-25T03:11:56;25.02;;;7.90;;
30888;SDS011;51092;50.874;7.024;2023-04-25T03:12:57;15.13;;;6.90;;
30888;SDS011;51092;50.874;7.024;2023-04-25T03:14:00;15.45;;;7.05;;
30888;SDS011;51092;50.874;7.024;2023-04-25T03:15:01;16.52;;;6.43;;
30888;SDS011;51092;50.874;7.024;2023-04-25T03:16:05;17.20;;;6.90;;
30888;SDS011;51092;50.874;7.024;2023-04-25T03:17:06;14.57;;;5.72;;
30888;SDS011;51092;50.874;7.024;2023-04-25T03:18:08;22.83;;;7.30;;
30888;SDS011;51092;50.874;7.024;2023-04-25T03:19:10;21.00;;;7.53;;
30888;SDS011;51092;50.874;7.024;2023-04-25T03:20:12;19.90;;;6.85;;
30888;SDS011;51092;50.874;7.024;2023-04-25T03:21:13;19.10;;;7.38;;
30888;SDS011;51092;50.874;7.024;2023-04-25T03:22:15;21.77;;;6.95;;
30888;SDS011;51092;50.874;7.024;2023-04-25T03:23:16;15.63;;;6.97;;
30888;SDS011;51092;50.874;7.024;2023-04-25T03:24:18;18.58;;;6.15;;
30888;SDS011;51092;50.874;7.024;2023-04-25T03:25:19;16.85;;;8.07;;
30888;SDS011;51092;50.874;7.024;2023-04-25T03:26:23;15.48;;;6.80;;
30888;SDS011;51092;50.874;7.024;2023-04-25T03:27:24;18.77;;;7.80;;
30888;SDS011;51092;50.874;7.024;2023-04-25T03:28:27;19.73;;;6.95;;
30888;SDS011;51092;50.874;7.024;2023-04-25T03:29:29;15.80;;;5.82;;
30888;SDS011;51092;50.874;7.024;2023-04-25T03:30:31;21.73;;;6.13;;
30888;SDS011;51092;50.874;7.024;2023-04-25T03:31:33;16.85;;;6.63;;
30888;SDS011;51092;50.874;7.024;2023-04-25T03:32:35;16.77;;;7.38;;
30888;SDS011;51092;50.874;7.024;2023-04-25T03:33:37;16.88;;;6.32;;
30888;SDS011;51092;50.874;7.024;2023-04-25T03:34:39;15.55;;;6.60;;
30888;SDS011;51092;50.874;7.024;2023-04-25T03:35:41;18.17;;;7.07;;
30888;SDS011;51092;50.874;7.024;2023-04-25T03:36:44;25.00;;;6.68;;
30888;SDS011;51092;50.874;7.024;2023-04-25T03:37:46;16.13;;;6.20;;
30888;SDS011;51092;50.874;7.024;2023-04-25T03:38:48;14.68;;;7.18;;
30888;SDS011;51092;50.874;7.024;2023-04-25T03:39:50;13.70;;;6.80;;
30888;SDS011;51092;50.874;7.024;2023-04-25T03:40:52;16.05;;;6.97;;
30888;SDS011;51092;50.874;7.024;2023-04-25T03:41:58;13.98;;;6.85;;
30888;SDS011;51092;50.874;7.024;2023-04-25T03:42:59;20.92;;;7.28;;
30888;SDS011;51092;50.874;7.024;2023-04-25T03:44:02;16.63;;;7.32;;
30888;SDS011;51092;50.874;7.024;2023-04-25T03:45:04;15.85;;;8.18;;
30888;SDS011;51092;50.874;7.024;2023-04-25T03:46:07;25.08;;;8.13;;
30888;SDS011;51092;50.874;7.024;2023-04-25T03:47:09;13.73;;;6.20;;
30888;SDS011;51092;50.874;7.024;2023-04-25T03:48:11;18.17;;;7.40;;
30888;SDS011;51092;50.874;7.024;2023-04-25T03:49:13;19.45;;;6.50;;
30888;SDS011;51092;50.874;7.024;2023-04-25T03:50:15;19.60;;;6.75;;
30888;SDS011;51092;50.874;7.024;2023-04-25T03:51:17;20.45;;;6.55;;
30888;SDS011;51092;50.874;7.024;2023-04-25T03:52:19;15.57;;;6.53;;
30888;SDS011;51092;50.874;7.024;2023-04-25T03:53:21;14.88;;;5.63;;
30888;SDS011;51092;50.874;7.024;2023-04-25T03:54:23;25.63;;;7.60;;
30888;SDS011;51092;50.874;7.024;2023-04-25T03:55:25;18.73;;;6.63;;
30888;SDS011;51092;50.874;7.024;2023-04-25T03:56:27;24.05;;;8.52;;
30888;SDS011;51092;50.874;7.024;2023-04-25T03:57:30;20.88;;;6.88;;
30888;SDS011;51092;50.874;7.024;2023-04-25T03:58:33;22.85;;;7.28;;
30888;SDS011;51092;50.874;7.024;2023-04-25T03:59:34;16.55;;;7.20;;
30888;SDS011;51092;50.874;7.024;2023-04-25T04:00:37;17.90;;;6.50;;
30888;SDS011;51092;50.874;7.024;2023-04-25T04:01:38;10.77;;;7.00;;
30888;SDS011;51092;50.874;7.024;2023-04-25T04:02:41;18.58;;;6.32;;
30888;SDS011;51092;50.874;7.024;2023-04-25T04:03:42;15.68;;;5.90;;
30888;SDS011;51092;50.874;7.024;2023-04-25T04:04:45;14.27;;;6.38;;
30888;SDS011;51092;50.874;7.024;2023-04-25T04:05:46;18.05;;;7.07;;
30888;SDS011;51092;50.874;7.024;2023-04-25T04:06:49;15.88;;;6.25;;
30888;SDS011;51092;50.874;7.024;2023-04-25T04:07:51;19.60;;;7.35;;
30888;SDS011;51092;50.874;7.024;2023-04-25T04:08:54;14.43;;;6.65;;
30888;SDS011;51092;50.874;7.024;2023-04-25T04:09:56;12.73;;;6.38;;
30888;SDS011;51092;50.874;7.024;2023-04-25T04:10:58;14.82;;;6.75;;
30888;SDS011;51092;50.874;7.024;2023-04-25T04:12:00;14.45;;;6.35;;
30888;SDS011;51092;50.874;7.024;2023-04-25T04:13:04;18.17;;;6.50;;
30888;SDS011;51092;50.874;7.024;2023-04-25T04:14:06;14.77;;;7.47;;
30888;SDS011;51092;50.874;7.024;2023-04-25T04:15:10;21.27;;;6.80;;
30888;SDS011;51092;50.874;7.024;2023-04-25T04:16:12;15.15;;;7.25;;
30888;SDS011;51092;50.874;7.024;2023-04-25T04:17:15;20.88;;;7.20;;
30888;SDS011;51092;50.874;7.024;2023-04-25T04:18:16;21.70;;;7.00;;
30888;SDS011;51092;50.874;7.024;2023-04-25T04:19:19;18.45;;;7.13;;
30888;SDS011;51092;50.874;7.024;2023-04-25T04:20:21;14.90;;;6.72;;
30888;SDS011;51092;50.874;7.024;2023-04-25T04:21:23;18.85;;;7.00;;
30888;SDS011;51092;50.874;7.024;2023-04-25T04:22:25;18.33;;;7.68;;
30888;SDS011;51092;50.874;7.024;2023-04-25T04:23:28;17.75;;;7.75;;
30888;SDS011;51092;50.874;7.024;2023-04-25T04:24:30;22.55;;;7.43;;
30888;SDS011;51092;50.874;7.024;2023-04-25T04:25:31;25.92;;;8.60;;
30888;SDS011;51092;50.874;7.024;2023-04-25T04:26:35;20.10;;;8.18;;
30888;SDS011;51092;50.874;7.024;2023-04-25T04:27:37;25.00;;;8.18;;
30888;SDS011;51092;50.874;7.024;2023-04-25T04:28:42;30.58;;;8.57;;
30888;SDS011;51092;50.874;7.024;2023-04-25T04:29:45;19.90;;;8.18;;
30888;SDS011;51092;50.874;7.024;2023-04-25T04:30:47;19.58;;;7.13;;
30888;SDS011;51092;50.874;7.024;2023-04-25T04:31:51;18.73;;;7.57;;
30888;SDS011;51092;50.874;7.024;2023-04-25T04:32:54;22.15;;;7.78;;
30888;SDS011;51092;50.874;7.024;2023-04-25T04:33:56;19.23;;;7.20;;
30888;SDS011;51092;50.874;7.024;2023-04-25T04:34:59;16.95;;;6.53;;
30888;SDS011;51092;50.874;7.024;2023-04-25T04:36:00;19.85;;;7.88;;
30888;SDS011;51092;50.874;7.024;2023-04-25T04:37:03;13.45;;;7.47;;
30888;SDS011;51092;50.874;7.024;2023-04-25T04:38:05;18.63;;;7.30;;
30888;SDS011;51092;50.874;7.024;2023-04-25T04:39:08;21.95;;;8.13;;
30888;SDS011;51092;50.874;7.024;2023-04-25T04:40:10;19.33;;;6.25;;
30888;SDS011;51092;50.874;7.024;2023-04-25T04:41:13;23.05;;;7.88;;
30888;SDS011;51092;50.874;7.024;2023-04-25T04:42:14;19.98;;;7.43;;
30888;SDS011;51092;50.874;7.024;2023-04-25T04:43:16;23.85;;;7.20;;
30888;SDS011;51092;50.874;7.024;2023-04-25T04:44:20;18.52;;;7.57;;
30888;SDS011;51092;50.874;7.024;2023-04-25T04:45:23;17.50;;;7.68;;
30888;SDS011;51092;50.874;7.024;2023-04-25T04:46:25;22.58;;;8.85;;
30888;SDS011;51092;50.874;7.024;2023-04-25T04:47:28;17.08;;;7.40;;
30888;SDS011;51092;50.874;7.024;2023-04-25T04:48:31;25.38;;;8.30;;
30888;SDS011;51092;50.874;7.024;2023-04-25T04:49:34;19.48;;;7.45;;
30888;SDS011;51092;50.874;7.024;2023-04-25T04:50:37;23.35;;;7.88;;
30888;SDS011;51092;50.874;7.024;2023-04-25T04:51:39;22.55;;;7.78;;
30888;SDS011;51092;50.874;7.024;2023-04-25T04:52:41;21.25;;;8.73;;
30888;SDS011;51092;50.874;7.024;2023-04-25T04:53:44;18.00;;;7.50;;
30888;SDS011;51092;50.874;7.024;2023-04-25T04:54:45;18.38;;;6.63;;
30888;SDS011;51092;50.874;7.024;2023-04-25T04:55:48;20.05;;;7.95;;
30888;SDS011;51092;50.874;7.024;2023-04-25T04:56:50;24.27;;;8.50;;
30888;SDS011;51092;50.874;7.024;2023-04-25T04:57:53;21.10;;;7.47;;
30888;SDS011;51092;50.874;7.024;2023-04-25T04:58:54;15.20;;;6.80;;
30888;SDS011;51092;50.874;7.024;2023-04-25T04:59:58;20.63;;;7.03;;
30888;SDS011;51092;50.874;7.024;2023-04-25T05:01:02;18.42;;;7.18;;
30888;SDS011;51092;50.874;7.024;2023-04-25T05:02:03;20.98;;;7.68;;
30888;SDS011;51092;50.874;7.024;2023-04-25T05:03:06;20.88;;;7.05;;
30888;SDS011;51092;50.874;7.024;2023-04-25T05:04:09;22.60;;;8.13;;
30888;SDS011;51092;50.874;7.024;2023-04-25T05:05:10;17.33;;;7.60;;
30888;SDS011;51092;50.874;7.024;2023-04-25T05:06:12;21.50;;;7.68;;
30888;SDS011;51092;50.874;7.024;2023-04-25T05:07:13;18.13;;;7.40;;
30888;SDS011;51092;50.874;7.024;2023-04-25T05:08:15;21.75;;;7.50;;
30888;SDS011;51092;50.874;7.024;2023-04-25T05:09:17;23.65;;;7.32;;
30888;SDS011;51092;50.874;7.024;2023-04-25T05:10:20;22.13;;;7.35;;
30888;SDS011;51092;50.874;7.024;2023-04-25T05:11:22;24.95;;;9.07;;
30888;SDS011;51092;50.874;7.024;2023-04-25T05:12:24;23.35;;;6.95;;
30888;SDS011;51092;50.874;7.024;2023-04-25T05:13:27;23.00;;;6.93;;
30888;SDS011;51092;50.874;7.024;2023-04-25T05:14:28;14.07;;;6.47;;
30888;SDS011;51092;50.874;7.024;2023-04-25T05:15:32;18.67;;;7.80;;
30888;SDS011;51092;50.874;7.024;2023-04-25T05:16:34;21.27;;;8.02;;
30888;SDS011;51092;50.874;7.024;2023-04-25T05:17:36;28.10;;;8.82;;
30888;SDS011;51092;50.874;7.024;2023-04-25T05:18:39;21.33;;;8.40;;
30888;SDS011;51092;50.874;7.024;2023-04-25T05:19:42;20.70;;;8.27;;
30888;SDS011;51092;50.874;7.024;2023-04-25T05:20:43;25.02;;;8.10;;
30888;SDS011;51092;50.874;7.024;2023-04-25T05:21:46;20.20;;;6.97;;
30888;SDS011;51092;50.874;7.024;2023-04-25T05:22:48;21.98;;;7.80;;
30888;SDS011;51092;50.874;7.024;2023-04-25T05:23:50;18.75;;;7.25;;
30888;SDS011;51092;50.874;7.024;2023-04-25T05:24:52;24.75;;;8.07;;
30888;SDS011;51092;50.874;7.024;2023-04-25T05:25:54;30.65;;;8.63;;
30888;SDS011;51092;50.874;7.024;2023-04-25T05:26:56;24.52;;;7.68;;
30888;SDS011;51092;50.874;7.024;2023-04-25T05:27:59;26.90;;;7.25;;
30888;SDS011;51092;50.874;7.024;2023-04-25T05:29:00;23.33;;;7.35;;
30888;SDS011;51092;50.874;7.024;2023-04-25T05:30:03;19.58;;;7.68;;
30888;SDS011;51092;50.874;7.024;2023-04-25T05:31:08;23.60;;;7.68;;
30888;SDS011;51092;50.874;7.024;2023-04-25T05:32:11;17.70;;;7.53;;
30888;SDS011;51092;50.874;7.024;2023-04-25T05:33:13;26.60;;;7.63;;
30888;SDS011;51092;50.874;7.024;2023-04-25T05:34:16;19.95;;;7.60;;
30888;SDS011;51092;50.874;7.024;2023-04-25T05:35:17;20.92;;;8.45;;
30888;SDS011;51092;50.874;7.024;2023-04-25T05:36:23;17.23;;;7.70;;
30888;SDS011;51092;50.874;7.024;2023-04-25T05:37:25;20.58;;;8.75;;
30888;SDS011;51092;50.874;7.024;2023-04-25T05:38:27;24.13;;;7.90;;
30888;SDS011;51092;50.874;7.024;2023-04-25T05:39:29;28.05;;;7.82;;
30888;SDS011;51092;50.874;7.024;2023-04-25T05:40:31;20.40;;;7.68;;
30888;SDS011;51092;50.874;7.024;2023-04-25T05:41:33;22.27;;;7.47;;
30888;SDS011;51092;50.874;7.024;2023-04-25T05:42:35;18.58;;;7.35;;
30888;SDS011;51092;50.874;7.024;2023-04-25T05:43:37;30.58;;;8.07;;
30888;SDS011;51092;50.874;7.024;2023-04-25T05:44:39;25.55;;;7.90;;
30888;SDS011;51092;50.874;7.024;2023-04-25T05:45:41;19.67;;;7.78;;
30888;SDS011;51092;50.874;7.024;2023-04-25T05:46:44;25.58;;;8.07;;
30888;SDS011;51092;50.874;7.024;2023-04-25T05:47:46;27.77;;;8.30;;
30888;SDS011;51092;50.874;7.024;2023-04-25T05:48:48;21.38;;;6.82;;
30888;SDS011;51092;50.874;7.024;2023-04-25T05:49:50;30.25;;;8.20;;
30888;SDS011;51092;50.874;7.024;2023-04-25T05:50:52;22.23;;;7.70;;
30888;SDS011;51092;50.874;7.024;2023-04-25T05:51:54;19.75;;;7.65;;
30888;SDS011;51092;50.874;7.024;2023-04-25T05:52:56;19.05;;;6.82;;
30888;SDS011;51092;50.874;7.024;2023-04-25T05:53:58;27.63;;;8.82;;
30888;SDS011;51092;50.874;7.024;2023-04-25T05:55:00;25.00;;;7.47;;
30888;SDS011;51092;50.874;7.024;2023-04-25T05:56:02;24.73;;;8.98;;
30888;SDS011;51092;50.874;7.024;2023-04-25T05:57:05;22.48;;;7.47;;
30888;SDS011;51092;50.874;7.024;2023-04-25T05:58:07;20.65;;;8.25;;
30888;SDS011;51092;50.874;7.024;2023-04-25T05:59:09;24.25;;;8.50;;
30888;SDS011;51092;50.874;7.024;2023-04-25T06:00:11;29.73;;;8.48;;
30888;SDS011;51092;50.874;7.024;2023-04-25T06:01:16;20.52;;;7.70;;
30888;SDS011;51092;50.874;7.024;2023-04-25T06:02:19;27.63;;;9.98;;
30888;SDS011;51092;50.874;7.024;2023-04-25T06:03:22;30.40;;;7.78;;
30888;SDS011;51092;50.874;7.024;2023-04-25T06:04:25;27.17;;;8.52;;
30888;SDS011;51092;50.874;7.024;2023-04-25T06:05:27;28.73;;;8.65;;
30888;SDS011;51092;50.874;7.024;2023-04-25T06:06:29;28.98;;;9.50;;
30888;SDS011;51092;50.874;7.024;2023-04-25T06:07:31;25.20;;;8.15;;
30888;SDS011;51092;50.874;7.024;2023-04-25T06:08:33;25.08;;;7.93;;
30888;SDS011;51092;50.874;7.024;2023-04-25T06:09:35;22.48;;;8.13;;